Christian & Alexa — WAA4721 — position and weather

sailwx.info

Track history (hours):
 
Tides and Currents Weather Stations Pressure Air Temp Water Temp Dewpoint Dewpoint Depression Visibility Wind Speed Wind Dir Waves Ship Positions

Christian & Alexa

Owner: TRAWLER DIANNE & MAUREEN INC, BELMAR, NJ. More information available from US FCC via Universal Licensing System and Coast Guard Vessel Documentation Center.

Last reported at 2014-Oct-01 02:23 UTC. Time now 2014-Oct-01 16:18 UTC.
Position N 40°18' W 072°22'.

Length 30 m.

Type: Fishing. MMSI: 366939620.

Date/timePositionNaut miles runAvg speedWind from/ knotsBaromVisibWave heightAir tempDewpointWater temp
2014-Oct-01 02:23N 40°18' W 072°22'0 0.3
2014-Oct-01 01:29N 40°18' W 072°22'1 1.4
2014-Oct-01 00:33N 40°19' W 072°22'0 0.3
2014-Sep-30 23:32N 40°19' W 072°21'0 0.5
2014-Sep-30 22:32N 40°19' W 072°22'0 0.4
2014-Sep-30 21:29N 40°18' W 072°22'1 0.8
2014-Sep-30 20:32N 40°18' W 072°23'0 0.4
2014-Sep-30 19:22N 40°17' W 072°23'1 1.6
2014-Sep-30 18:32N 40°16' W 072°24'4 4.0
2014-Sep-30 17:33N 40°19' W 072°21'1 0.7
2014-Sep-30 16:33N 40°19' W 072°21'4 3.8
2014-Sep-30 15:33N 40°16' W 072°25'4 4.0
2014-Sep-30 14:33N 40°14' W 072°29'1 1.1
2014-Sep-30 13:33N 40°13' W 072°30'3 2.7
2014-Sep-30 12:15N 40°13' W 072°35'1 1.5
2014-Sep-30 11:33N 40°13' W 072°33'1 0.5
2014-Sep-30 10:33N 40°13' W 072°33'3 2.3
2014-Sep-30 09:12N 40°10' W 072°30'3 1.9
2014-Sep-30 07:30N 40°08' W 072°34'34 2.6
2014-Sep-29 18:33N 40°08' W 073°19'5 4.5
2014-Sep-29 17:24N 40°08' W 073°25'8 4.3
2014-Sep-29 15:33N 40°10' W 073°36'9 8.5
2014-Sep-29 14:28N 40°09' W 073°48'9 8.9
2014-Sep-29 13:27N 40°07' W 073°59'  
Track history (hours):
 
Tides and Currents Weather Stations Pressure Air Temp Water Temp Dewpoint Dewpoint Depression Visibility Wind Speed Wind Dir Waves Ship Positions

Christian & Alexa

Owner: TRAWLER DIANNE & MAUREEN INC, BELMAR, NJ. More information available from US FCC via Universal Licensing System and Coast Guard Vessel Documentation Center.

Last reported at 2014-Oct-01 02:23 UTC. Time now 2014-Oct-01 16:18 UTC.
Position N 40°18' W 072°22'.

Length 30 m.

Type: Fishing. MMSI: 366939620.

Date/timePositionNaut miles runAvg speedWind from/ knotsBaromVisibWave heightAir tempDewpointWater temp
2014-Oct-01 02:23N 40°18' W 072°22'0 0.3
2014-Oct-01 01:29N 40°18' W 072°22'1 1.4
2014-Oct-01 00:33N 40°19' W 072°22'0 0.3
2014-Sep-30 23:32N 40°19' W 072°21'0 0.5
2014-Sep-30 22:32N 40°19' W 072°22'0 0.4
2014-Sep-30 21:29N 40°18' W 072°22'1 0.8
2014-Sep-30 20:32N 40°18' W 072°23'0 0.4
2014-Sep-30 19:22N 40°17' W 072°23'1 1.6
2014-Sep-30 18:32N 40°16' W 072°24'4 4.0
2014-Sep-30 17:33N 40°19' W 072°21'1 0.7
2014-Sep-30 16:33N 40°19' W 072°21'4 3.8
2014-Sep-30 15:33N 40°16' W 072°25'4 4.0
2014-Sep-30 14:33N 40°14' W 072°29'1 1.1
2014-Sep-30 13:33N 40°13' W 072°30'3 2.7
2014-Sep-30 12:15N 40°13' W 072°35'1 1.5
2014-Sep-30 11:33N 40°13' W 072°33'1 0.5
2014-Sep-30 10:33N 40°13' W 072°33'3 2.3
2014-Sep-30 09:12N 40°10' W 072°30'3 1.9
2014-Sep-30 07:30N 40°08' W 072°34'34 2.6
2014-Sep-29 18:33N 40°08' W 073°19'5 4.5
2014-Sep-29 17:24N 40°08' W 073°25'8 4.3
2014-Sep-29 15:33N 40°10' W 073°36'9 8.5
2014-Sep-29 14:28N 40°09' W 073°48'9 8.9
2014-Sep-29 13:27N 40°07' W 073°59'  

Dump ship's entire track history